createdAt,value
2022-09-26T00:01:29.250Z,18.08
2022-09-26T00:30:01.519Z,18.08
2022-09-26T00:58:29.175Z,18.06
2022-09-26T01:27:05.012Z,18.06
2022-09-26T01:55:49.943Z,18.05
2022-09-26T02:24:14.388Z,18.06
2022-09-26T02:52:47.286Z,18.05
2022-09-26T03:21:37.726Z,18.05
2022-09-26T03:49:59.111Z,18.04
2022-09-26T04:18:35.035Z,18.03
2022-09-26T04:47:08.700Z,18.04
2022-09-26T05:15:54.589Z,18.01
2022-09-26T05:44:27.173Z,18.01
2022-09-26T06:13:05.416Z,18
2022-09-26T06:41:34.500Z,18
2022-09-26T07:10:01.283Z,18
2022-09-26T07:38:25.593Z,17.99
2022-09-26T08:07:00.903Z,17.99
2022-09-26T08:35:30.204Z,17.99
2022-09-26T09:03:46.234Z,17.99
2022-09-26T09:32:28.862Z,17.95
2022-09-26T10:01:04.071Z,17.94
2022-09-26T10:29:29.065Z,17.93
2022-09-26T10:57:54.499Z,17.91
2022-09-26T11:26:19.774Z,17.9
2022-09-26T11:54:54.191Z,17.87
2022-09-26T12:23:30.585Z,17.89
2022-09-26T12:52:15.089Z,17.91
2022-09-26T13:20:52.988Z,17.94
2022-09-26T13:49:24.022Z,17.95
2022-09-26T14:17:46.971Z,17.97
2022-09-26T14:46:06.927Z,17.96
2022-09-26T16:41:15.593Z,18
2022-09-26T17:09:29.096Z,17.98
2022-09-26T17:37:49.659Z,17.98
2022-09-26T18:06:19.462Z,17.98
2022-09-26T19:03:26.899Z,17.96
2022-09-26T19:31:24.575Z,17.97
2022-09-26T20:28:41.248Z,17.97
2022-09-26T20:57:32.624Z,17.96
2022-09-26T21:25:37.130Z,17.97
2022-09-26T21:54:08.675Z,17.96
2022-09-26T22:22:52.078Z,17.95
2022-09-26T22:51:35.472Z,17.94
2022-09-26T23:20:23.997Z,17.92
2022-09-26T23:48:58.486Z,17.93
